sensor_id;sensor_type;location;lat;lon;timestamp;temperature;humidity
9998;DHT22;5038;53.064;8.624;2023-03-01T00:01:01;-0.40;99.90
9998;DHT22;5038;53.064;8.624;2023-03-01T00:03:30;-0.40;99.90
9998;DHT22;5038;53.064;8.624;2023-03-01T00:06:00;-0.40;99.90
9998;DHT22;5038;53.064;8.624;2023-03-01T00:08:28;-0.40;99.90
9998;DHT22;5038;53.064;8.624;2023-03-01T00:11:02;-0.40;99.90
9998;DHT22;5038;53.064;8.624;2023-03-01T00:13:30;-0.50;99.90
9998;DHT22;5038;53.064;8.624;2023-03-01T00:15:59;-0.50;99.90
9998;DHT22;5038;53.064;8.624;2023-03-01T00:18:28;-0.50;99.90
9998;DHT22;5038;53.064;8.624;2023-03-01T00:20:57;-0.50;99.90
9998;DHT22;5038;53.064;8.624;2023-03-01T00:23:27;-0.50;99.90
9998;DHT22;5038;53.064;8.624;2023-03-01T00:25:55;-0.60;99.90
9998;DHT22;5038;53.064;8.624;2023-03-01T00:28:25;-0.60;99.90
9998;DHT22;5038;53.064;8.624;2023-03-01T00:30:53;-0.60;99.90
9998;DHT22;5038;53.064;8.624;2023-03-01T00:33:22;-0.60;99.90
9998;DHT22;5038;53.064;8.624;2023-03-01T00:35:50;-0.60;99.90
9998;DHT22;5038;53.064;8.624;2023-03-01T00:38:18;-0.60;99.90
9998;DHT22;5038;53.064;8.624;2023-03-01T00:40:47;-0.70;99.90
9998;DHT22;5038;53.064;8.624;2023-03-01T00:43:15;-0.70;99.90
9998;DHT22;5038;53.064;8.624;2023-03-01T00:45:43;-0.70;99.90
9998;DHT22;5038;53.064;8.624;2023-03-01T00:48:11;-0.70;99.90
9998;DHT22;5038;53.064;8.624;2023-03-01T00:50:39;-0.80;99.90
9998;DHT22;5038;53.064;8.624;2023-03-01T00:53:07;-0.80;99.90
9998;DHT22;5038;53.064;8.624;2023-03-01T00:55:36;-0.80;99.90
9998;DHT22;5038;53.064;8.624;2023-03-01T00:58:06;-0.80;99.90
9998;DHT22;5038;53.064;8.624;2023-03-01T01:00:34;-0.80;99.90
9998;DHT22;5038;53.064;8.624;2023-03-01T01:03:03;-0.90;99.90
9998;DHT22;5038;53.064;8.624;2023-03-01T01:05:34;-0.90;99.90
9998;DHT22;5038;53.064;8.624;2023-03-01T01:08:02;-0.90;99.90
9998;DHT22;5038;53.064;8.624;2023-03-01T01:10:30;-0.90;99.90
9998;DHT22;5038;53.064;8.624;2023-03-01T01:12:58;-0.90;99.90
9998;DHT22;5038;53.064;8.624;2023-03-01T01:15:28;-0.90;99.90
9998;DHT22;5038;53.064;8.624;2023-03-01T01:17:56;-0.90;99.90
9998;DHT22;5038;53.064;8.624;2023-03-01T01:20:24;-0.90;99.90
9998;DHT22;5038;53.064;8.624;2023-03-01T01:22:52;-1.00;99.90
9998;DHT22;5038;53.064;8.624;2023-03-01T01:25:20;-1.00;99.90
9998;DHT22;5038;53.064;8.624;2023-03-01T01:27:48;-1.00;99.90
9998;DHT22;5038;53.064;8.624;2023-03-01T01:30:16;-1.00;99.90
9998;DHT22;5038;53.064;8.624;2023-03-01T01:32:46;-1.00;99.90
9998;DHT22;5038;53.064;8.624;2023-03-01T01:35:14;-1.00;99.90
9998;DHT22;5038;53.064;8.624;2023-03-01T01:37:42;-1.10;99.90
9998;DHT22;5038;53.064;8.624;2023-03-01T01:40:11;-1.10;99.90
9998;DHT22;5038;53.064;8.624;2023-03-01T01:42:39;-1.10;99.90
9998;DHT22;5038;53.064;8.624;2023-03-01T01:45:30;-1.10;99.90
9998;DHT22;5038;53.064;8.624;2023-03-01T01:48:03;-1.10;99.90
9998;DHT22;5038;53.064;8.624;2023-03-01T01:50:33;-1.10;99.90
9998;DHT22;5038;53.064;8.624;2023-03-01T01:53:09;-1.20;99.90
9998;DHT22;5038;53.064;8.624;2023-03-01T01:55:41;-1.20;99.90
9998;DHT22;5038;53.064;8.624;2023-03-01T01:58:13;-1.20;99.90
9998;DHT22;5038;53.064;8.624;2023-03-01T02:00:43;-1.20;99.90
9998;DHT22;5038;53.064;8.624;2023-03-01T02:03:17;-1.20;99.90
9998;DHT22;5038;53.064;8.624;2023-03-01T02:05:50;-1.30;99.90
9998;DHT22;5038;53.064;8.624;2023-03-01T02:08:24;-1.20;99.90
9998;DHT22;5038;53.064;8.624;2023-03-01T02:10:55;-1.30;99.90
9998;DHT22;5038;53.064;8.624;2023-03-01T02:13:23;-1.30;99.90
9998;DHT22;5038;53.064;8.624;2023-03-01T02:15:53;-1.30;99.90
9998;DHT22;5038;53.064;8.624;2023-03-01T02:18:23;-1.30;99.90
9998;DHT22;5038;53.064;8.624;2023-03-01T02:21:03;-1.30;99.90
9998;DHT22;5038;53.064;8.624;2023-03-01T02:23:33;-1.40;99.90
9998;DHT22;5038;53.064;8.624;2023-03-01T02:26:07;-1.40;99.90
9998;DHT22;5038;53.064;8.624;2023-03-01T02:28:40;-1.40;99.90
9998;DHT22;5038;53.064;8.624;2023-03-01T02:31:11;-1.40;99.90
9998;DHT22;5038;53.064;8.624;2023-03-01T02:34:00;-1.40;99.90
9998;DHT22;5038;53.064;8.624;2023-03-01T02:36:35;-1.40;99.90
9998;DHT22;5038;53.064;8.624;2023-03-01T02:39:06;-1.40;99.90
9998;DHT22;5038;53.064;8.624;2023-03-01T02:41:44;-1.50;99.90
9998;DHT22;5038;53.064;8.624;2023-03-01T02:44:14;-1.50;99.90
9998;DHT22;5038;53.064;8.624;2023-03-01T02:46:44;-1.50;99.90
9998;DHT22;5038;53.064;8.624;2023-03-01T02:49:23;-1.50;99.90
9998;DHT22;5038;53.064;8.624;2023-03-01T02:52:07;-1.50;99.90
9998;DHT22;5038;53.064;8.624;2023-03-01T02:54:41;-1.50;99.90
9998;DHT22;5038;53.064;8.624;2023-03-01T02:57:13;-1.50;99.90
9998;DHT22;5038;53.064;8.624;2023-03-01T02:59:44;-1.60;99.90
9998;DHT22;5038;53.064;8.624;2023-03-01T03:02:20;-1.60;99.90
9998;DHT22;5038;53.064;8.624;2023-03-01T03:05:10;-1.60;99.90
9998;DHT22;5038;53.064;8.624;2023-03-01T03:07:42;-1.60;99.90
9998;DHT22;5038;53.064;8.624;2023-03-01T03:10:12;-1.60;99.90
9998;DHT22;5038;53.064;8.624;2023-03-01T03:12:41;-1.60;99.90
9998;DHT22;5038;53.064;8.624;2023-03-01T03:15:11;-1.60;99.90
9998;DHT22;5038;53.064;8.624;2023-03-01T03:17:41;-1.60;99.90
9998;DHT22;5038;53.064;8.624;2023-03-01T03:20:14;-1.60;99.90
9998;DHT22;5038;53.064;8.624;2023-03-01T03:22:46;-1.70;99.90
9998;DHT22;5038;53.064;8.624;2023-03-01T03:25:15;-1.70;99.90
9998;DHT22;5038;53.064;8.624;2023-03-01T03:27:44;-1.70;99.90
9998;DHT22;5038;53.064;8.624;2023-03-01T03:30:16;-1.70;99.90
9998;DHT22;5038;53.064;8.624;2023-03-01T03:32:46;-1.70;99.90
9998;DHT22;5038;53.064;8.624;2023-03-01T03:35:20;-1.70;99.90
9998;DHT22;5038;53.064;8.624;2023-03-01T03:37:48;-1.70;99.90
9998;DHT22;5038;53.064;8.624;2023-03-01T03:40:35;-1.70;99.90
9998;DHT22;5038;53.064;8.624;2023-03-01T03:43:04;-1.70;99.90
9998;DHT22;5038;53.064;8.624;2023-03-01T03:45:34;-1.70;99.90
9998;DHT22;5038;53.064;8.624;2023-03-01T03:48:05;-1.70;99.90
9998;DHT22;5038;53.064;8.624;2023-03-01T03:50:34;-1.70;99.90
9998;DHT22;5038;53.064;8.624;2023-03-01T03:53:04;-1.80;99.90
9998;DHT22;5038;53.064;8.624;2023-03-01T03:55:33;-1.80;99.90
9998;DHT22;5038;53.064;8.624;2023-03-01T03:58:02;-1.80;99.90
9998;DHT22;5038;53.064;8.624;2023-03-01T04:00:36;-1.80;99.90
9998;DHT22;5038;53.064;8.624;2023-03-01T04:03:04;-1.80;99.90
9998;DHT22;5038;53.064;8.624;2023-03-01T04:05:33;-1.80;99.90
9998;DHT22;5038;53.064;8.624;2023-03-01T04:08:02;-1.80;99.90
9998;DHT22;5038;53.064;8.624;2023-03-01T04:10:32;-1.80;99.90
9998;DHT22;5038;53.064;8.624;2023-03-01T04:13:00;-1.80;99.90
9998;DHT22;5038;53.064;8.624;2023-03-01T04:15:29;-1.80;99.90
9998;DHT22;5038;53.064;8.624;2023-03-01T04:17:59;-1.80;99.90
9998;DHT22;5038;53.064;8.624;2023-03-01T04:20:29;-1.90;99.90
9998;DHT22;5038;53.064;8.624;2023-03-01T04:22:59;-1.90;99.90
9998;DHT22;5038;53.064;8.624;2023-03-01T04:25:35;-1.90;99.90
9998;DHT22;5038;53.064;8.624;2023-03-01T04:28:03;-1.90;99.90
9998;DHT22;5038;53.064;8.624;2023-03-01T04:30:32;-1.90;99.90
9998;DHT22;5038;53.064;8.624;2023-03-01T04:33:04;-1.90;99.90
9998;DHT22;5038;53.064;8.624;2023-03-01T04:35:33;-1.90;99.90
9998;DHT22;5038;53.064;8.624;2023-03-01T04:38:02;-1.90;99.90
9998;DHT22;5038;53.064;8.624;2023-03-01T04:40:30;-1.90;99.90
9998;DHT22;5038;53.064;8.624;2023-03-01T04:42:58;-1.90;99.90
9998;DHT22;5038;53.064;8.624;2023-03-01T04:45:26;-2.00;99.90
9998;DHT22;5038;53.064;8.624;2023-03-01T04:47:54;-2.00;99.90
9998;DHT22;5038;53.064;8.624;2023-03-01T04:50:26;-2.00;99.90
9998;DHT22;5038;53.064;8.624;2023-03-01T04:52:54;-2.00;99.90
9998;DHT22;5038;53.064;8.624;2023-03-01T04:55:26;-2.00;99.90
9998;DHT22;5038;53.064;8.624;2023-03-01T04:57:55;-2.00;99.90
9998;DHT22;5038;53.064;8.624;2023-03-01T05:00:26;-2.00;99.90
9998;DHT22;5038;53.064;8.624;2023-03-01T05:02:56;-2.00;99.90
9998;DHT22;5038;53.064;8.624;2023-03-01T05:05:29;-2.00;99.90
9998;DHT22;5038;53.064;8.624;2023-03-01T05:08:00;-2.00;99.90
9998;DHT22;5038;53.064;8.624;2023-03-01T05:10:29;-2.10;99.90
9998;DHT22;5038;53.064;8.624;2023-03-01T05:12:59;-2.10;99.90
9998;DHT22;5038;53.064;8.624;2023-03-01T05:15:28;-2.10;99.90
9998;DHT22;5038;53.064;8.624;2023-03-01T05:17:58;-2.10;99.90
9998;DHT22;5038;53.064;8.624;2023-03-01T05:20:30;-2.10;99.90
9998;DHT22;5038;53.064;8.624;2023-03-01T05:22:59;-2.10;99.90
9998;DHT22;5038;53.064;8.624;2023-03-01T05:25:33;-2.10;99.90
9998;DHT22;5038;53.064;8.624;2023-03-01T05:28:01;-2.10;99.90
9998;DHT22;5038;53.064;8.624;2023-03-01T05:30:31;-2.10;99.90
9998;DHT22;5038;53.064;8.624;2023-03-01T05:33:00;-2.10;99.90
9998;DHT22;5038;53.064;8.624;2023-03-01T05:35:32;-2.10;99.90
9998;DHT22;5038;53.064;8.624;2023-03-01T05:38:00;-2.20;99.90
9998;DHT22;5038;53.064;8.624;2023-03-01T05:40:28;-2.10;99.90
9998;DHT22;5038;53.064;8.624;2023-03-01T05:42:57;-2.20;99.90
9998;DHT22;5038;53.064;8.624;2023-03-01T05:45:26;-2.20;99.90
9998;DHT22;5038;53.064;8.624;2023-03-01T05:47:55;-2.20;99.90
9998;DHT22;5038;53.064;8.624;2023-03-01T05:50:24;-2.20;99.90
9998;DHT22;5038;53.064;8.624;2023-03-01T05:52:58;-2.20;99.90
9998;DHT22;5038;53.064;8.624;2023-03-01T05:55:28;-2.20;99.90
9998;DHT22;5038;53.064;8.624;2023-03-01T05:57:58;-2.20;99.90
9998;DHT22;5038;53.064;8.624;2023-03-01T06:00:28;-2.20;99.90
9998;DHT22;5038;53.064;8.624;2023-03-01T06:02:57;-2.20;99.90
9998;DHT22;5038;53.064;8.624;2023-03-01T06:05:26;-2.20;99.90
9998;DHT22;5038;53.064;8.624;2023-03-01T06:07:58;-2.20;99.90
9998;DHT22;5038;53.064;8.624;2023-03-01T06:10:27;-2.20;99.90
9998;DHT22;5038;53.064;8.624;2023-03-01T06:12:56;-2.30;99.90
9998;DHT22;5038;53.064;8.624;2023-03-01T06:15:25;-2.30;99.90
9998;DHT22;5038;53.064;8.624;2023-03-01T06:17:54;-2.30;99.90
9998;DHT22;5038;53.064;8.624;2023-03-01T06:20:27;-2.30;99.90
9998;DHT22;5038;53.064;8.624;2023-03-01T06:22:57;-2.30;99.90
9998;DHT22;5038;53.064;8.624;2023-03-01T06:25:27;-2.30;99.90
9998;DHT22;5038;53.064;8.624;2023-03-01T06:27:55;-2.30;99.90
9998;DHT22;5038;53.064;8.624;2023-03-01T06:30:25;-2.30;99.90
9998;DHT22;5038;53.064;8.624;2023-03-01T06:32:53;-2.30;99.90
9998;DHT22;5038;53.064;8.624;2023-03-01T06:35:28;-2.30;99.90
9998;DHT22;5038;53.064;8.624;2023-03-01T06:38:00;-2.30;99.90
9998;DHT22;5038;53.064;8.624;2023-03-01T06:40:28;-2.30;99.90
9998;DHT22;5038;53.064;8.624;2023-03-01T06:42:58;-2.30;99.90
9998;DHT22;5038;53.064;8.624;2023-03-01T06:45:26;-2.30;99.90
9998;DHT22;5038;53.064;8.624;2023-03-01T06:48:01;-2.20;99.90
9998;DHT22;5038;53.064;8.624;2023-03-01T06:50:30;-2.20;99.90
9998;DHT22;5038;53.064;8.624;2023-03-01T06:53:00;-2.20;99.90
9998;DHT22;5038;53.064;8.624;2023-03-01T06:55:28;-2.20;99.90
9998;DHT22;5038;53.064;8.624;2023-03-01T06:57:57;-2.20;99.90
9998;DHT22;5038;53.064;8.624;2023-03-01T07:00:25;-2.20;99.90
9998;DHT22;5038;53.064;8.624;2023-03-01T07:02:54;-2.10;99.90
9998;DHT22;5038;53.064;8.624;2023-03-01T07:05:22;-2.10;99.90
9998;DHT22;5038;53.064;8.624;2023-03-01T07:07:50;-2.10;99.90
9998;DHT22;5038;53.064;8.624;2023-03-01T07:10:20;-2.10;99.90
9998;DHT22;5038;53.064;8.624;2023-03-01T07:12:48;-2.10;99.90
9998;DHT22;5038;53.064;8.624;2023-03-01T07:15:16;-2.00;99.90
9998;DHT22;5038;53.064;8.624;2023-03-01T07:17:44;-2.00;99.90
9998;DHT22;5038;53.064;8.624;2023-03-01T07:20:14;-1.90;99.90
9998;DHT22;5038;53.064;8.624;2023-03-01T07:22:42;-1.90;99.90
9998;DHT22;5038;53.064;8.624;2023-03-01T07:25:11;-1.80;99.90
9998;DHT22;5038;53.064;8.624;2023-03-01T07:27:40;-1.80;99.90
9998;DHT22;5038;53.064;8.624;2023-03-01T07:30:09;-1.80;99.90
9998;DHT22;5038;53.064;8.624;2023-03-01T07:32:37;-1.70;99.90
9998;DHT22;5038;53.064;8.624;2023-03-01T07:35:06;-1.60;99.90
9998;DHT22;5038;53.064;8.624;2023-03-01T07:37:35;-1.60;99.90
9998;DHT22;5038;53.064;8.624;2023-03-01T07:40:04;-1.50;99.90
9998;DHT22;5038;53.064;8.624;2023-03-01T07:42:32;-1.40;99.90
9998;DHT22;5038;53.064;8.624;2023-03-01T07:45:02;-1.40;99.90
9998;DHT22;5038;53.064;8.624;2023-03-01T07:47:30;-1.40;99.90
9998;DHT22;5038;53.064;8.624;2023-03-01T07:49:59;-1.30;99.90
9998;DHT22;5038;53.064;8.624;2023-03-01T07:52:28;-1.30;99.90
9998;DHT22;5038;53.064;8.624;2023-03-01T07:54:56;-1.30;99.90
9998;DHT22;5038;53.064;8.624;2023-03-01T07:57:24;-1.20;99.90
9998;DHT22;5038;53.064;8.624;2023-03-01T07:59:52;-1.20;99.90
9998;DHT22;5038;53.064;8.624;2023-03-01T08:02:22;-1.10;99.90
9998;DHT22;5038;53.064;8.624;2023-03-01T08:04:50;-1.10;99.90
9998;DHT22;5038;53.064;8.624;2023-03-01T08:07:18;-1.00;99.90
9998;DHT22;5038;53.064;8.624;2023-03-01T08:09:46;-1.00;99.90
9998;DHT22;5038;53.064;8.624;2023-03-01T08:12:14;-0.90;99.90
9998;DHT22;5038;53.064;8.624;2023-03-01T08:14:43;-0.80;99.90
9998;DHT22;5038;53.064;8.624;2023-03-01T08:17:13;-0.80;99.90
9998;DHT22;5038;53.064;8.624;2023-03-01T08:19:44;-0.70;99.90
9998;DHT22;5038;53.064;8.624;2023-03-01T08:22:12;-0.60;99.90
9998;DHT22;5038;53.064;8.624;2023-03-01T08:24:40;-0.50;99.90
9998;DHT22;5038;53.064;8.624;2023-03-01T08:27:08;-0.40;99.90
9998;DHT22;5038;53.064;8.624;2023-03-01T08:29:38;-0.20;99.90
9998;DHT22;5038;53.064;8.624;2023-03-01T08:32:06;-0.10;99.90
9998;DHT22;5038;53.064;8.624;2023-03-01T08:34:36;0.00;99.90
9998;DHT22;5038;53.064;8.624;2023-03-01T08:37:06;0.20;99.90
9998;DHT22;5038;53.064;8.624;2023-03-01T08:39:34;0.30;99.90
9998;DHT22;5038;53.064;8.624;2023-03-01T08:42:03;0.30;99.90
9998;DHT22;5038;53.064;8.624;2023-03-01T08:44:31;0.40;99.90
9998;DHT22;5038;53.064;8.624;2023-03-01T08:47:00;0.50;99.90
9998;DHT22;5038;53.064;8.624;2023-03-01T08:49:29;0.50;99.90
9998;DHT22;5038;53.064;8.624;2023-03-01T08:51:57;0.60;99.90
9998;DHT22;5038;53.064;8.624;2023-03-01T08:54:26;0.70;99.90
9998;DHT22;5038;53.064;8.624;2023-03-01T08:56:54;0.80;99.90
9998;DHT22;5038;53.064;8.624;2023-03-01T08:59:22;0.90;99.90
9998;DHT22;5038;53.064;8.624;2023-03-01T09:01:50;0.90;99.90
9998;DHT22;5038;53.064;8.624;2023-03-01T09:04:19;1.10;99.90
9998;DHT22;5038;53.064;8.624;2023-03-01T09:06:47;1.20;99.90
9998;DHT22;5038;53.064;8.624;2023-03-01T09:09:16;1.30;99.90
9998;DHT22;5038;53.064;8.624;2023-03-01T09:11:46;1.30;99.90
9998;DHT22;5038;53.064;8.624;2023-03-01T09:14:16;1.40;99.90
9998;DHT22;5038;53.064;8.624;2023-03-01T09:16:45;1.50;99.90
9998;DHT22;5038;53.064;8.624;2023-03-01T09:19:13;1.50;99.90
9998;DHT22;5038;53.064;8.624;2023-03-01T09:21:42;1.60;99.90
9998;DHT22;5038;53.064;8.624;2023-03-01T09:24:20;1.70;99.90
9998;DHT22;5038;53.064;8.624;2023-03-01T09:26:53;1.80;99.90
9998;DHT22;5038;53.064;8.624;2023-03-01T09:29:21;1.80;99.90
9998;DHT22;5038;53.064;8.624;2023-03-01T09:31:50;1.90;99.90
9998;DHT22;5038;53.064;8.624;2023-03-01T09:34:18;2.00;99.90
9998;DHT22;5038;53.064;8.624;2023-03-01T09:36:50;2.10;99.90
9998;DHT22;5038;53.064;8.624;2023-03-01T09:39:18;2.20;99.90
9998;DHT22;5038;53.064;8.624;2023-03-01T09:41:53;2.30;99.90
9998;DHT22;5038;53.064;8.624;2023-03-01T09:44:33;2.30;99.90
9998;DHT22;5038;53.064;8.624;2023-03-01T09:47:02;2.40;99.90
9998;DHT22;5038;53.064;8.624;2023-03-01T09:49:33;2.50;99.90
9998;DHT22;5038;53.064;8.624;2023-03-01T09:52:09;2.60;99.90
9998;DHT22;5038;53.064;8.624;2023-03-01T09:54:41;2.70;99.90
9998;DHT22;5038;53.064;8.624;2023-03-01T09:57:18;2.80;99.90
9998;DHT22;5038;53.064;8.624;2023-03-01T10:00:02;2.90;99.90
9998;DHT22;5038;53.064;8.624;2023-03-01T10:02:39;3.00;99.90
9998;DHT22;5038;53.064;8.624;2023-03-01T10:05:35;3.10;99.90
9998;DHT22;5038;53.064;8.624;2023-03-01T10:08:27;3.20;99.90
9998;DHT22;5038;53.064;8.624;2023-03-01T10:10:58;3.30;99.90
9998;DHT22;5038;53.064;8.624;2023-03-01T10:13:37;3.40;99.90
9998;DHT22;5038;53.064;8.624;2023-03-01T10:16:13;3.50;99.90
9998;DHT22;5038;53.064;8.624;2023-03-01T10:18:54;3.60;99.90
9998;DHT22;5038;53.064;8.624;2023-03-01T10:21:23;3.70;99.90
9998;DHT22;5038;53.064;8.624;2023-03-01T10:23:52;3.80;99.90
9998;DHT22;5038;53.064;8.624;2023-03-01T10:26:33;3.80;99.90
9998;DHT22;5038;53.064;8.624;2023-03-01T10:29:06;3.90;99.90
9998;DHT22;5038;53.064;8.624;2023-03-01T10:31:39;4.00;99.90
9998;DHT22;5038;53.064;8.624;2023-03-01T10:34:12;4.10;99.90
9998;DHT22;5038;53.064;8.624;2023-03-01T10:36:42;4.10;99.90
9998;DHT22;5038;53.064;8.624;2023-03-01T10:39:14;4.20;99.90
9998;DHT22;5038;53.064;8.624;2023-03-01T10:41:54;4.30;99.90
9998;DHT22;5038;53.064;8.624;2023-03-01T10:44:45;4.40;99.90
9998;DHT22;5038;53.064;8.624;2023-03-01T10:47:19;4.40;99.90
9998;DHT22;5038;53.064;8.624;2023-03-01T10:49:57;4.50;99.90
9998;DHT22;5038;53.064;8.624;2023-03-01T10:52:28;4.50;99.90
9998;DHT22;5038;53.064;8.624;2023-03-01T10:54:58;4.50;99.90
9998;DHT22;5038;53.064;8.624;2023-03-01T10:57:36;4.60;99.90
9998;DHT22;5038;53.064;8.624;2023-03-01T11:00:22;4.70;99.90
9998;DHT22;5038;53.064;8.624;2023-03-01T11:03:04;4.70;99.90
9998;DHT22;5038;53.064;8.624;2023-03-01T11:05:54;4.80;99.90
9998;DHT22;5038;53.064;8.624;2023-03-01T11:08:46;4.80;99.90
9998;DHT22;5038;53.064;8.624;2023-03-01T11:11:22;4.90;99.90
9998;DHT22;5038;53.064;8.624;2023-03-01T11:13:56;5.00;99.90
9998;DHT22;5038;53.064;8.624;2023-03-01T11:16:29;5.00;99.90
9998;DHT22;5038;53.064;8.624;2023-03-01T11:19:03;5.10;99.90
9998;DHT22;5038;53.064;8.624;2023-03-01T11:21:33;5.20;99.90
9998;DHT22;5038;53.064;8.624;2023-03-01T11:24:03;5.30;99.90
9998;DHT22;5038;53.064;8.624;2023-03-01T11:26:37;5.40;99.90
9998;DHT22;5038;53.064;8.624;2023-03-01T11:29:12;5.40;99.90
9998;DHT22;5038;53.064;8.624;2023-03-01T11:31:46;5.50;99.90
9998;DHT22;5038;53.064;8.624;2023-03-01T11:34:34;5.50;99.90
9998;DHT22;5038;53.064;8.624;2023-03-01T11:37:13;5.60;99.90
9998;DHT22;5038;53.064;8.624;2023-03-01T11:39:47;5.60;99.90
9998;DHT22;5038;53.064;8.624;2023-03-01T11:42:22;5.70;99.90
9998;DHT22;5038;53.064;8.624;2023-03-01T11:44:55;5.70;99.90
9998;DHT22;5038;53.064;8.624;2023-03-01T11:47:38;5.70;99.90
9998;DHT22;5038;53.064;8.624;2023-03-01T11:50:18;5.80;99.90
9998;DHT22;5038;53.064;8.624;2023-03-01T11:53:05;5.80;99.90
9998;DHT22;5038;53.064;8.624;2023-03-01T11:55:51;5.90;99.90
9998;DHT22;5038;53.064;8.624;2023-03-01T11:58:34;5.90;99.90
9998;DHT22;5038;53.064;8.624;2023-03-01T12:01:18;6.00;99.90
9998;DHT22;5038;53.064;8.624;2023-03-01T12:06:52;6.10;99.90
9998;DHT22;5038;53.064;8.624;2023-03-01T12:09:47;6.10;99.90
9998;DHT22;5038;53.064;8.624;2023-03-01T12:12:36;6.20;99.90
9998;DHT22;5038;53.064;8.624;2023-03-01T12:15:46;6.20;99.90
9998;DHT22;5038;53.064;8.624;2023-03-01T12:18:32;6.20;99.90
9998;DHT22;5038;53.064;8.624;2023-03-01T12:21:14;6.20;99.90
9998;DHT22;5038;53.064;8.624;2023-03-01T12:24:10;6.30;99.90
9998;DHT22;5038;53.064;8.624;2023-03-01T12:26:50;6.30;99.90
9998;DHT22;5038;53.064;8.624;2023-03-01T12:29:25;6.30;99.90
9998;DHT22;5038;53.064;8.624;2023-03-01T12:32:21;6.40;99.90
9998;DHT22;5038;53.064;8.624;2023-03-01T12:35:10;6.50;99.90
9998;DHT22;5038;53.064;8.624;2023-03-01T12:37:50;6.50;99.90
9998;DHT22;5038;53.064;8.624;2023-03-01T12:40:31;6.50;99.90
9998;DHT22;5038;53.064;8.624;2023-03-01T12:43:12;6.50;99.90
9998;DHT22;5038;53.064;8.624;2023-03-01T12:45:51;6.60;99.90
9998;DHT22;5038;53.064;8.624;2023-03-01T12:48:34;6.60;99.90
9998;DHT22;5038;53.064;8.624;2023-03-01T12:51:11;6.60;99.90
9998;DHT22;5038;53.064;8.624;2023-03-01T12:53:46;6.60;99.90
9998;DHT22;5038;53.064;8.624;2023-03-01T12:56:19;6.60;99.90
9998;DHT22;5038;53.064;8.624;2023-03-01T12:58:56;6.60;99.90
9998;DHT22;5038;53.064;8.624;2023-03-01T13:01:33;6.70;99.90
9998;DHT22;5038;53.064;8.624;2023-03-01T13:04:15;6.70;99.90
9998;DHT22;5038;53.064;8.624;2023-03-01T13:06:54;6.80;99.90
9998;DHT22;5038;53.064;8.624;2023-03-01T13:09:29;6.80;99.90
9998;DHT22;5038;53.064;8.624;2023-03-01T13:11:58;6.90;99.90
9998;DHT22;5038;53.064;8.624;2023-03-01T13:14:45;7.00;99.90
9998;DHT22;5038;53.064;8.624;2023-03-01T13:17:40;7.00;99.90
9998;DHT22;5038;53.064;8.624;2023-03-01T13:20:15;7.10;99.90
9998;DHT22;5038;53.064;8.624;2023-03-01T13:22:45;7.10;99.90
9998;DHT22;5038;53.064;8.624;2023-03-01T13:25:22;7.20;99.90
9998;DHT22;5038;53.064;8.624;2023-03-01T13:31:02;7.30;99.90
9998;DHT22;5038;53.064;8.624;2023-03-01T13:33:41;7.40;99.90
9998;DHT22;5038;53.064;8.624;2023-03-01T13:36:47;7.50;99.90
9998;DHT22;5038;53.064;8.624;2023-03-01T13:39:29;7.50;99.90
9998;DHT22;5038;53.064;8.624;2023-03-01T13:42:01;7.60;99.90
9998;DHT22;5038;53.064;8.624;2023-03-01T13:44:32;7.60;99.90
9998;DHT22;5038;53.064;8.624;2023-03-01T13:47:14;7.60;99.90
9998;DHT22;5038;53.064;8.624;2023-03-01T13:49:47;7.70;99.90
9998;DHT22;5038;53.064;8.624;2023-03-01T13:52:35;7.70;99.90
9998;DHT22;5038;53.064;8.624;2023-03-01T13:55:07;7.70;99.90
9998;DHT22;5038;53.064;8.624;2023-03-01T13:57:47;7.70;99.90
9998;DHT22;5038;53.064;8.624;2023-03-01T14:00:29;7.80;99.90
9998;DHT22;5038;53.064;8.624;2023-03-01T14:03:10;7.80;99.90
9998;DHT22;5038;53.064;8.624;2023-03-01T14:05:40;7.80;99.90
9998;DHT22;5038;53.064;8.624;2023-03-01T14:08:24;7.80;99.90
9998;DHT22;5038;53.064;8.624;2023-03-01T14:11:07;7.80;99.90
9998;DHT22;5038;53.064;8.624;2023-03-01T14:13:48;7.80;99.90
9998;DHT22;5038;53.064;8.624;2023-03-01T14:16:29;7.90;99.90
9998;DHT22;5038;53.064;8.624;2023-03-01T14:19:10;7.90;99.90
9998;DHT22;5038;53.064;8.624;2023-03-01T14:22:10;8.00;99.90
9998;DHT22;5038;53.064;8.624;2023-03-01T14:24:46;8.00;99.90
9998;DHT22;5038;53.064;8.624;2023-03-01T14:27:16;8.00;99.90
9998;DHT22;5038;53.064;8.624;2023-03-01T14:29:55;8.10;99.90
9998;DHT22;5038;53.064;8.624;2023-03-01T14:32:26;8.10;99.90
9998;DHT22;5038;53.064;8.624;2023-03-01T14:34:56;8.10;99.90
9998;DHT22;5038;53.064;8.624;2023-03-01T14:37:26;8.10;99.90
9998;DHT22;5038;53.064;8.624;2023-03-01T14:39:56;8.20;99.90
9998;DHT22;5038;53.064;8.624;2023-03-01T14:42:27;8.20;99.90
9998;DHT22;5038;53.064;8.624;2023-03-01T14:44:58;8.20;99.90
9998;DHT22;5038;53.064;8.624;2023-03-01T14:47:29;8.20;99.90
9998;DHT22;5038;53.064;8.624;2023-03-01T14:50:00;8.20;99.90
9998;DHT22;5038;53.064;8.624;2023-03-01T14:52:34;8.20;99.90
9998;DHT22;5038;53.064;8.624;2023-03-01T14:55:06;8.20;99.90
9998;DHT22;5038;53.064;8.624;2023-03-01T14:57:34;8.20;99.90
9998;DHT22;5038;53.064;8.624;2023-03-01T15:00:07;8.20;99.90
9998;DHT22;5038;53.064;8.624;2023-03-01T15:02:35;8.20;99.90
9998;DHT22;5038;53.064;8.624;2023-03-01T15:05:08;8.20;99.90
9998;DHT22;5038;53.064;8.624;2023-03-01T15:07:40;8.20;99.90
9998;DHT22;5038;53.064;8.624;2023-03-01T15:10:19;8.20;99.90
9998;DHT22;5038;53.064;8.624;2023-03-01T15:12:48;8.20;99.90
9998;DHT22;5038;53.064;8.624;2023-03-01T15:15:34;8.20;99.90
9998;DHT22;5038;53.064;8.624;2023-03-01T15:18:12;8.10;99.90
9998;DHT22;5038;53.064;8.624;2023-03-01T15:20:41;8.10;99.90
9998;DHT22;5038;53.064;8.624;2023-03-01T15:23:22;8.10;99.90
9998;DHT22;5038;53.064;8.624;2023-03-01T15:25:52;8.10;99.90
9998;DHT22;5038;53.064;8.624;2023-03-01T15:28:25;8.10;99.90
9998;DHT22;5038;53.064;8.624;2023-03-01T15:31:00;8.10;99.90
9998;DHT22;5038;53.064;8.624;2023-03-01T15:33:35;8.10;99.90
9998;DHT22;5038;53.064;8.624;2023-03-01T15:36:33;8.10;99.90
9998;DHT22;5038;53.064;8.624;2023-03-01T15:39:02;8.10;99.90
9998;DHT22;5038;53.064;8.624;2023-03-01T15:41:32;8.00;99.90
9998;DHT22;5038;53.064;8.624;2023-03-01T15:44:13;8.00;99.90
9998;DHT22;5038;53.064;8.624;2023-03-01T15:46:46;8.00;99.90
9998;DHT22;5038;53.064;8.624;2023-03-01T15:49:29;8.00;99.90
9998;DHT22;5038;53.064;8.624;2023-03-01T15:51:59;8.00;99.90
9998;DHT22;5038;53.064;8.624;2023-03-01T15:54:28;8.00;99.90
9998;DHT22;5038;53.064;8.624;2023-03-01T15:56:56;8.00;99.90
9998;DHT22;5038;53.064;8.624;2023-03-01T15:59:24;8.00;99.90
9998;DHT22;5038;53.064;8.624;2023-03-01T16:01:52;7.90;99.90
9998;DHT22;5038;53.064;8.624;2023-03-01T16:04:21;7.90;99.90
9998;DHT22;5038;53.064;8.624;2023-03-01T16:06:50;7.90;99.90
9998;DHT22;5038;53.064;8.624;2023-03-01T16:09:24;7.80;99.90
9998;DHT22;5038;53.064;8.624;2023-03-01T16:11:53;7.80;99.90
9998;DHT22;5038;53.064;8.624;2023-03-01T16:14:21;7.80;99.90
9998;DHT22;5038;53.064;8.624;2023-03-01T16:16:50;7.80;99.90
9998;DHT22;5038;53.064;8.624;2023-03-01T16:19:18;7.70;99.90
9998;DHT22;5038;53.064;8.624;2023-03-01T16:21:46;7.70;99.90
9998;DHT22;5038;53.064;8.624;2023-03-01T16:24:16;7.60;99.90
9998;DHT22;5038;53.064;8.624;2023-03-01T16:26:46;7.60;99.90
9998;DHT22;5038;53.064;8.624;2023-03-01T16:29:14;7.60;99.90
9998;DHT22;5038;53.064;8.624;2023-03-01T16:31:42;7.50;99.90
9998;DHT22;5038;53.064;8.624;2023-03-01T16:34:11;7.50;99.90
9998;DHT22;5038;53.064;8.624;2023-03-01T16:36:39;7.40;99.90
9998;DHT22;5038;53.064;8.624;2023-03-01T16:39:10;7.40;99.90
9998;DHT22;5038;53.064;8.624;2023-03-01T16:41:38;7.40;99.90
9998;DHT22;5038;53.064;8.624;2023-03-01T16:44:07;7.30;99.90
9998;DHT22;5038;53.064;8.624;2023-03-01T16:46:35;7.30;99.90
9998;DHT22;5038;53.064;8.624;2023-03-01T16:49:04;7.20;99.90
9998;DHT22;5038;53.064;8.624;2023-03-01T16:51:32;7.20;99.90